createdAt,value
2022-10-26T00:01:05.571Z,5.80
2022-10-26T00:03:32.715Z,6.05
2022-10-26T00:06:10.515Z,5.82
2022-10-26T00:08:37.595Z,5.93
2022-10-26T00:11:04.974Z,5.15
2022-10-26T00:13:32.442Z,5.20
2022-10-26T00:18:31.742Z,4.93
2022-10-26T00:21:03.301Z,4.85
2022-10-26T00:23:31.510Z,5.13
2022-10-26T00:25:58.625Z,5.22
2022-10-26T00:28:25.728Z,5.38
2022-10-26T00:30:52.979Z,4.88
2022-10-26T00:33:20.598Z,4.82
2022-10-26T00:35:49.250Z,5.38
2022-10-26T00:38:16.410Z,5.03
2022-10-26T00:40:44.381Z,4.75
2022-10-26T00:43:16.470Z,4.60
2022-10-26T00:45:44.833Z,4.50
2022-10-26T00:48:19.700Z,4.85
2022-10-26T00:53:16.424Z,4.72
2022-10-26T00:55:46.576Z,4.22
2022-10-26T00:58:14.618Z,4.90
2022-10-26T01:00:42.390Z,4.30
2022-10-26T01:03:10.181Z,4.70
2022-10-26T01:06:00.180Z,4.25
2022-10-26T01:08:28.782Z,4.70
2022-10-26T01:10:57.254Z,4.35
2022-10-26T01:13:25.322Z,5.07
2022-10-26T01:16:00.130Z,4.95
2022-10-26T01:21:07.494Z,3.85
2022-10-26T01:23:44.685Z,4.18
2022-10-26T01:26:38.477Z,4.07
2022-10-26T01:29:24.315Z,4.13
2022-10-26T01:32:00.338Z,4.15
2022-10-26T01:34:53.781Z,3.50
2022-10-26T01:37:25.259Z,3.60
2022-10-26T01:40:00.465Z,4.00
2022-10-26T01:42:29.425Z,3.72
2022-10-26T01:45:05.395Z,3.88
2022-10-26T01:47:33.982Z,3.63
2022-10-26T01:50:03.038Z,3.70
2022-10-26T01:52:30.206Z,3.83
2022-10-26T01:55:04.500Z,3.90
2022-10-26T01:57:34.946Z,3.55
2022-10-26T02:03:50.652Z,3.40
2022-10-26T02:06:23.716Z,4.18
2022-10-26T02:08:56.903Z,3.85
2022-10-26T02:11:41.720Z,3.65
2022-10-26T02:14:19.101Z,4.10
2022-10-26T02:16:49.007Z,4.07
2022-10-26T02:19:23.059Z,3.72
2022-10-26T02:21:55.399Z,3.92
2022-10-26T02:24:23.402Z,3.33
2022-10-26T02:26:51.374Z,4.25
2022-10-26T02:29:19.364Z,3.50
2022-10-26T02:31:47.932Z,3.92
2022-10-26T02:34:16.851Z,4.10
2022-10-26T02:36:45.573Z,3.75
2022-10-26T02:39:13.398Z,3.85
2022-10-26T02:41:41.723Z,3.47
2022-10-26T02:44:11.683Z,3.83
2022-10-26T02:46:39.143Z,2.75
2022-10-26T02:49:06.438Z,3.47
2022-10-26T02:51:33.751Z,3.35
2022-10-26T02:54:00.806Z,3.33
2022-10-26T02:56:34.612Z,3.03
2022-10-26T02:59:03.168Z,3.53
2022-10-26T03:01:30.667Z,3.20
2022-10-26T03:03:58.483Z,3.40
2022-10-26T03:06:25.954Z,3.25
2022-10-26T03:08:53.168Z,3.70
2022-10-26T03:11:20.333Z,3.30
2022-10-26T03:13:47.616Z,3.22
2022-10-26T03:16:14.663Z,3.47
2022-10-26T03:18:41.925Z,3.33
2022-10-26T03:21:09.198Z,3.72
2022-10-26T03:23:36.332Z,3.25
2022-10-26T03:26:03.455Z,3.03
2022-10-26T03:28:30.648Z,3.33
2022-10-26T03:30:57.754Z,3.58
2022-10-26T03:33:27.194Z,3.22
2022-10-26T03:35:56.665Z,3.22
2022-10-26T03:40:50.970Z,3.78
2022-10-26T03:43:18.153Z,3.70
2022-10-26T03:45:45.963Z,3.17
2022-10-26T03:48:13.145Z,3.97
2022-10-26T03:50:40.337Z,3.20
2022-10-26T03:53:07.855Z,3.38
2022-10-26T03:55:34.898Z,2.63
2022-10-26T03:58:02.256Z,3.85
2022-10-26T04:00:29.396Z,3.42
2022-10-26T04:03:00.272Z,3.90
2022-10-26T04:05:28.399Z,3.97
2022-10-26T04:07:59.728Z,3.33
2022-10-26T04:10:27.486Z,3.63
2022-10-26T04:12:55.126Z,3.45
2022-10-26T04:15:22.915Z,3.28
2022-10-26T04:17:50.295Z,3.30
2022-10-26T04:20:17.663Z,3.60
2022-10-26T04:22:44.808Z,3.70
2022-10-26T04:25:13.525Z,3.67
2022-10-26T04:30:09.917Z,3.90
2022-10-26T04:32:37.077Z,3.08
2022-10-26T04:35:04.358Z,3.20
2022-10-26T04:37:31.586Z,4.00
2022-10-26T04:39:58.750Z,3.35
2022-10-26T04:42:25.840Z,3.40
2022-10-26T04:44:52.917Z,3.58
2022-10-26T04:47:20.121Z,3.47
2022-10-26T04:49:47.351Z,3.15
2022-10-26T04:52:14.432Z,3.67
2022-10-26T04:54:41.521Z,3.47
2022-10-26T04:57:08.593Z,3.95
2022-10-26T04:59:35.850Z,3.90
2022-10-26T05:02:03.082Z,4.05
2022-10-26T05:04:30.295Z,3.67
2022-10-26T05:06:57.407Z,3.90
2022-10-26T05:09:24.509Z,4.15
2022-10-26T05:11:51.793Z,3.95
2022-10-26T05:14:18.895Z,3.70
2022-10-26T05:16:46.199Z,4.05
2022-10-26T05:19:13.263Z,3.80
2022-10-26T05:21:40.426Z,4.63
2022-10-26T05:24:10.195Z,4.20
2022-10-26T05:26:39.668Z,3.78
2022-10-26T05:29:08.043Z,3.88
2022-10-26T05:31:35.264Z,4.45
2022-10-26T05:34:02.322Z,3.85
2022-10-26T05:36:29.543Z,3.45
2022-10-26T05:38:59.997Z,3.97
2022-10-26T05:41:27.580Z,3.70
2022-10-26T05:43:54.872Z,2.90
2022-10-26T05:46:21.985Z,4.03
2022-10-26T05:48:49.148Z,3.72
2022-10-26T05:51:16.495Z,3.25
2022-10-26T05:53:43.600Z,3.90
2022-10-26T05:56:21.101Z,4.57
2022-10-26T05:58:49.013Z,4.45
2022-10-26T06:01:19.107Z,3.60
2022-10-26T06:03:53.660Z,4.18
2022-10-26T06:06:23.407Z,3.58
2022-10-26T06:08:50.671Z,3.97
2022-10-26T06:11:17.927Z,5.35
2022-10-26T06:13:45.195Z,3.72
2022-10-26T06:16:15.397Z,3.50
2022-10-26T06:19:06.639Z,4.40
2022-10-26T06:21:33.710Z,3.53
2022-10-26T06:24:06.814Z,3.42
2022-10-26T06:26:43.005Z,4.07
2022-10-26T06:29:17.975Z,3.58
2022-10-26T06:31:45.718Z,4.10
2022-10-26T06:34:14.327Z,3.95
2022-10-26T06:36:42.187Z,3.85
2022-10-26T06:39:11.405Z,4.07
2022-10-26T06:41:38.860Z,4.03
2022-10-26T06:44:06.402Z,4.22
2022-10-26T06:46:37.099Z,3.92
2022-10-26T06:49:05.213Z,3.75
2022-10-26T06:51:34.952Z,3.60
2022-10-26T06:54:05.353Z,4.10
2022-10-26T06:56:32.703Z,3.30
2022-10-26T06:59:06.972Z,4.05
2022-10-26T07:01:34.346Z,3.97
2022-10-26T07:04:01.499Z,3.60
2022-10-26T07:06:28.575Z,3.60
2022-10-26T07:08:55.658Z,3.70
2022-10-26T07:11:22.980Z,3.42
2022-10-26T07:13:51.780Z,3.25
2022-10-26T07:16:19.044Z,3.55
2022-10-26T07:18:46.219Z,3.80
2022-10-26T07:21:13.327Z,3.75
2022-10-26T07:23:40.849Z,3.33
2022-10-26T07:26:07.926Z,3.70
2022-10-26T07:28:36.505Z,3.30
2022-10-26T07:31:05.568Z,3.80
2022-10-26T07:33:33.072Z,4.03
2022-10-26T07:36:02.296Z,3.35
2022-10-26T07:38:29.392Z,3.78
2022-10-26T07:40:56.497Z,3.60
2022-10-26T07:43:23.608Z,4.10
2022-10-26T07:45:51.639Z,3.78
2022-10-26T07:48:19.161Z,3.50
2022-10-26T07:50:46.290Z,3.75
2022-10-26T07:53:13.423Z,3.40
2022-10-26T07:55:40.534Z,3.33
2022-10-26T07:58:07.669Z,3.50
2022-10-26T08:00:35.216Z,3.67
2022-10-26T08:03:02.653Z,3.38
2022-10-26T08:07:57.084Z,3.58
2022-10-26T08:10:24.316Z,3.90
2022-10-26T08:12:53.986Z,3.17
2022-10-26T08:15:21.249Z,3.38
2022-10-26T08:17:48.531Z,3.40
2022-10-26T08:20:15.953Z,3.17
2022-10-26T08:22:43.132Z,3.75
2022-10-26T08:25:10.775Z,3.30
2022-10-26T08:27:37.905Z,3.00
2022-10-26T08:30:06.189Z,3.22
2022-10-26T08:32:33.419Z,3.35
2022-10-26T08:35:00.490Z,2.95
2022-10-26T08:37:28.201Z,3.55
2022-10-26T08:39:56.680Z,3.42
2022-10-26T08:42:45.285Z,3.42
2022-10-26T08:47:46.603Z,3.35
2022-10-26T08:52:52.606Z,3.38
2022-10-26T08:55:21.282Z,3.38
2022-10-26T08:57:49.340Z,3.33
2022-10-26T09:00:19.590Z,3.28
2022-10-26T09:02:51.660Z,3.33
2022-10-26T09:05:22.905Z,3.15
2022-10-26T09:08:00.673Z,3.00
2022-10-26T09:10:38.157Z,3.05
2022-10-26T09:13:05.266Z,3.60
2022-10-26T09:15:52.646Z,3.15
2022-10-26T09:18:19.730Z,2.75
2022-10-26T09:20:46.780Z,2.75
2022-10-26T09:23:14.151Z,2.80
2022-10-26T09:25:41.698Z,2.90
2022-10-26T09:28:17.094Z,2.75
2022-10-26T09:30:48.393Z,2.53
2022-10-26T09:33:20.218Z,3.03
2022-10-26T09:35:47.577Z,2.85
2022-10-26T09:38:17.761Z,2.70
2022-10-26T09:40:57.107Z,2.63
2022-10-26T09:43:27.328Z,2.83
2022-10-26T09:45:54.967Z,2.70
2022-10-26T09:48:27.907Z,2.78
2022-10-26T09:51:00.496Z,2.50
2022-10-26T09:53:31.530Z,2.60
2022-10-26T09:56:11.964Z,2.45
2022-10-26T09:58:51.150Z,2.42
2022-10-26T10:01:22.656Z,2.55
2022-10-26T10:04:09.375Z,2.50
2022-10-26T10:09:11.282Z,2.58
2022-10-26T10:11:43.907Z,2.60
2022-10-26T10:14:16.231Z,2.53
2022-10-26T10:16:50.372Z,2.88
2022-10-26T10:19:34.252Z,2.78
2022-10-26T10:22:02.740Z,2.35
2022-10-26T10:24:29.854Z,2.40
2022-10-26T10:27:17.236Z,2.40
2022-10-26T10:29:45.602Z,2.70
2022-10-26T10:32:17.145Z,2.40
2022-10-26T10:34:44.678Z,2.30
2022-10-26T10:37:20.858Z,2.70
2022-10-26T10:39:48.434Z,2.42
2022-10-26T10:48:06.755Z,2.10
2022-10-26T10:50:35.337Z,2.70
2022-10-26T10:53:19.870Z,2.25
2022-10-26T10:59:04.398Z,2.13
2022-10-26T11:01:36.769Z,2.72
2022-10-26T11:04:16.590Z,2.60
2022-10-26T11:06:44.459Z,3.15
2022-10-26T11:09:13.603Z,3.08
2022-10-26T11:11:51.237Z,3.10
2022-10-26T11:14:20.955Z,2.90
2022-10-26T11:16:50.398Z,2.90
2022-10-26T11:19:29.629Z,2.70
2022-10-26T11:21:57.609Z,2.53
2022-10-26T11:24:30.490Z,3.00
2022-10-26T11:26:57.695Z,2.92
2022-10-26T11:29:50.860Z,2.70
2022-10-26T11:32:30.530Z,2.55
2022-10-26T11:35:00.745Z,2.28
2022-10-26T11:37:37.705Z,2.55
2022-10-26T11:40:13.956Z,2.63
2022-10-26T11:42:47.322Z,2.58
2022-10-26T11:45:20.884Z,2.47
2022-10-26T11:47:52.684Z,2.30
2022-10-26T11:50:39.582Z,2.60
2022-10-26T11:53:12.981Z,2.25
2022-10-26T11:55:41.005Z,2.40
2022-10-26T11:58:10.572Z,2.30
2022-10-26T12:00:44.399Z,2.67
2022-10-26T12:03:14.674Z,2.40
2022-10-26T12:05:41.789Z,2.20
2022-10-26T12:08:16.716Z,2.47
2022-10-26T12:10:49.157Z,2.17
2022-10-26T12:13:19.384Z,2.22
2022-10-26T12:16:03.088Z,2.10
2022-10-26T12:18:56.707Z,2.20
2022-10-26T12:21:29.087Z,2.47
2022-10-26T12:23:56.584Z,2.05
2022-10-26T12:26:23.709Z,2.17
2022-10-26T12:29:11.053Z,2.10
2022-10-26T12:31:38.180Z,2.00
2022-10-26T12:34:06.708Z,2.30
2022-10-26T12:36:52.503Z,2.50
2022-10-26T12:39:46.069Z,2.20
2022-10-26T12:42:15.899Z,2.38
2022-10-26T12:44:45.824Z,2.65
2022-10-26T12:47:31.000Z,2.63
2022-10-26T12:50:01.551Z,2.63
2022-10-26T12:52:33.536Z,3.03
2022-10-26T12:55:03.860Z,2.33
2022-10-26T12:57:41.269Z,2.83
2022-10-26T13:00:13.904Z,2.60
2022-10-26T13:02:59.798Z,2.70
2022-10-26T13:05:59.157Z,2.40
2022-10-26T13:08:26.452Z,2.50
2022-10-26T13:11:07.665Z,2.55
2022-10-26T13:13:36.152Z,2.65
2022-10-26T13:16:03.856Z,2.78
2022-10-26T13:18:31.133Z,4.70
2022-10-26T13:21:09.295Z,2.45
2022-10-26T13:23:38.130Z,2.28
2022-10-26T13:26:12.701Z,2.53
2022-10-26T13:28:39.983Z,2.63
2022-10-26T13:31:27.397Z,2.47
2022-10-26T13:33:56.872Z,3.70
2022-10-26T13:36:44.694Z,3.38
2022-10-26T13:39:15.925Z,2.80
2022-10-26T13:41:47.355Z,2.75
2022-10-26T13:44:18.897Z,3.00
2022-10-26T13:46:47.401Z,2.83
2022-10-26T13:49:19.091Z,3.30
2022-10-26T13:51:47.952Z,2.83
2022-10-26T13:54:21.775Z,3.30
2022-10-26T13:57:00.222Z,3.55
2022-10-26T13:59:28.593Z,3.20
2022-10-26T14:02:14.755Z,2.90
2022-10-26T14:04:41.991Z,3.00
2022-10-26T14:07:13.674Z,2.42
2022-10-26T14:09:40.843Z,2.65
2022-10-26T14:12:11.361Z,2.20
2022-10-26T14:14:39.205Z,2.58
2022-10-26T14:17:06.926Z,2.30
2022-10-26T14:19:35.926Z,2.65
2022-10-26T14:22:03.766Z,2.33
2022-10-26T14:24:46.290Z,1.80
2022-10-26T14:27:17.473Z,1.70
2022-10-26T14:29:49.886Z,1.63
2022-10-26T14:32:29.836Z,1.60
2022-10-26T14:34:56.971Z,1.40
2022-10-26T14:37:39.156Z,1.30
2022-10-26T14:40:07.882Z,1.30
2022-10-26T14:42:36.835Z,1.30
2022-10-26T14:45:04.066Z,1.30
2022-10-26T14:47:33.283Z,1.27
2022-10-26T14:52:35.266Z,1.40
2022-10-26T14:58:31.754Z,1.50
2022-10-26T15:01:17.807Z,1.50
2022-10-26T15:03:45.561Z,1.70
2022-10-26T15:06:28.182Z,1.50
2022-10-26T15:08:57.559Z,1.10
2022-10-26T15:11:24.909Z,1.33
2022-10-26T15:13:52.178Z,1.40
2022-10-26T15:16:24.617Z,1.60
2022-10-26T15:18:53.297Z,1.50
2022-10-26T15:21:27.607Z,1.33
2022-10-26T15:23:55.491Z,1.35
2022-10-26T15:26:23.057Z,1.38
2022-10-26T15:28:50.659Z,1.58
2022-10-26T15:31:17.819Z,1.35
2022-10-26T15:34:04.940Z,1.42
2022-10-26T15:36:33.295Z,1.75
2022-10-26T15:41:27.642Z,1.88
2022-10-26T15:43:59.353Z,1.27
2022-10-26T15:46:29.868Z,1.50
2022-10-26T15:48:58.237Z,1.27
2022-10-26T15:53:52.431Z,1.52
2022-10-26T15:56:20.518Z,1.50
2022-10-26T15:58:48.113Z,1.75
2022-10-26T16:01:19.410Z,1.48
2022-10-26T16:03:46.996Z,1.77
2022-10-26T16:06:23.080Z,1.67
2022-10-26T16:08:51.194Z,1.30
2022-10-26T16:11:18.343Z,1.48
2022-10-26T16:13:45.646Z,1.83
2022-10-26T16:16:16.905Z,1.70
2022-10-26T16:18:58.016Z,1.88
2022-10-26T16:24:19.287Z,1.48
2022-10-26T16:26:46.790Z,2.53
2022-10-26T16:29:13.918Z,1.58
2022-10-26T16:31:41.046Z,1.42
2022-10-26T16:34:08.142Z,1.50
2022-10-26T16:36:35.308Z,1.55
2022-10-26T16:41:34.997Z,2.17
2022-10-26T16:44:02.202Z,1.90
2022-10-26T16:46:29.370Z,1.70
2022-10-26T16:48:56.493Z,1.70
2022-10-26T16:51:26.430Z,1.38
2022-10-26T16:53:54.951Z,1.50
2022-10-26T16:56:23.221Z,1.83
2022-10-26T16:58:50.508Z,1.88
2022-10-26T17:01:19.006Z,2.00
2022-10-26T17:03:48.067Z,1.98
2022-10-26T17:06:15.366Z,2.40
2022-10-26T17:08:42.910Z,2.45
2022-10-26T17:11:21.319Z,2.20
2022-10-26T17:13:49.968Z,2.40
2022-10-26T17:16:18.476Z,2.30
2022-10-26T17:18:47.215Z,2.47
2022-10-26T17:21:15.659Z,2.13
2022-10-26T17:26:11.328Z,2.40
2022-10-26T17:28:38.939Z,2.65
2022-10-26T17:31:06.116Z,2.03
2022-10-26T17:33:34.557Z,2.72
2022-10-26T17:38:31.502Z,6.70
2022-10-26T17:41:06.244Z,4.75
2022-10-26T17:43:34.036Z,3.70
2022-10-26T17:46:01.861Z,3.75
2022-10-26T17:48:30.229Z,2.85
2022-10-26T17:51:00.861Z,2.92
2022-10-26T17:53:29.110Z,3.20
2022-10-26T17:56:05.353Z,4.63
2022-10-26T17:58:33.587Z,6.20
2022-10-26T18:01:02.349Z,4.95
2022-10-26T18:03:29.500Z,2.70
2022-10-26T18:05:58.159Z,4.70
2022-10-26T18:08:25.546Z,3.80
2022-10-26T18:10:53.829Z,3.75
2022-10-26T18:13:20.940Z,5.53
2022-10-26T18:15:48.092Z,3.03
2022-10-26T18:18:15.382Z,4.97
2022-10-26T18:20:42.519Z,9.45
2022-10-26T18:23:09.695Z,4.50
2022-10-26T18:25:37.604Z,5.25
2022-10-26T18:28:04.940Z,6.28
2022-10-26T18:30:32.078Z,3.50
2022-10-26T18:32:59.253Z,4.20
2022-10-26T18:35:26.673Z,3.75
2022-10-26T18:37:54.208Z,3.33
2022-10-26T18:40:21.597Z,4.72
2022-10-26T18:42:48.769Z,4.82
2022-10-26T18:45:16.057Z,5.07
2022-10-26T18:47:43.161Z,2.85
2022-10-26T18:50:10.438Z,3.33
2022-10-26T18:52:37.540Z,3.30
2022-10-26T18:55:05.832Z,3.20
2022-10-26T18:57:33.457Z,3.03
2022-10-26T19:00:00.673Z,2.90
2022-10-26T19:02:27.790Z,2.88
2022-10-26T19:04:58.761Z,3.28
2022-10-26T19:07:26.018Z,3.45
2022-10-26T19:09:53.412Z,3.30
2022-10-26T19:12:20.558Z,3.28
2022-10-26T19:14:47.683Z,3.30
2022-10-26T19:17:14.861Z,2.72
2022-10-26T19:19:41.973Z,4.22
2022-10-26T19:22:09.389Z,3.80
2022-10-26T19:24:36.533Z,5.18
2022-10-26T19:27:03.769Z,7.05
2022-10-26T19:29:30.929Z,5.05
2022-10-26T19:31:58.197Z,3.15
2022-10-26T19:34:26.100Z,3.95
2022-10-26T19:36:53.448Z,4.00
2022-10-26T19:39:20.536Z,3.50
2022-10-26T19:41:47.694Z,3.28
2022-10-26T19:44:15.706Z,3.88
2022-10-26T19:46:44.151Z,3.90
2022-10-26T19:49:12.668Z,3.47
2022-10-26T19:54:08.766Z,4.15
2022-10-26T19:56:36.912Z,4.03
2022-10-26T19:59:04.132Z,3.55
2022-10-26T20:01:31.333Z,4.38
2022-10-26T20:04:00.564Z,4.78
2022-10-26T20:06:27.990Z,5.32
2022-10-26T20:08:55.125Z,3.83
2022-10-26T20:11:22.281Z,5.88
2022-10-26T20:13:51.270Z,4.30
2022-10-26T20:16:18.954Z,6.15
2022-10-26T20:18:48.742Z,4.43
2022-10-26T20:21:16.888Z,5.68
2022-10-26T20:23:44.244Z,5.50
2022-10-26T20:26:18.738Z,6.13
2022-10-26T20:28:48.178Z,5.25
2022-10-26T20:31:15.402Z,6.40
2022-10-26T20:33:43.027Z,6.47
2022-10-26T20:36:10.421Z,5.18
2022-10-26T20:38:37.686Z,5.60
2022-10-26T20:41:07.994Z,4.90
2022-10-26T20:43:39.208Z,5.43
2022-10-26T20:46:06.775Z,6.05
2022-10-26T20:48:34.091Z,4.32
2022-10-26T20:51:04.555Z,4.80
2022-10-26T20:53:57.824Z,4.32
2022-10-26T20:56:26.010Z,4.82
2022-10-26T20:58:57.194Z,3.92
2022-10-26T21:01:29.032Z,4.07
2022-10-26T21:03:57.202Z,5.85
2022-10-26T21:06:26.531Z,5.60
2022-10-26T21:08:55.269Z,3.97
2022-10-26T21:11:23.187Z,5.45
2022-10-26T21:13:54.163Z,5.18
2022-10-26T21:16:24.151Z,5.72
2022-10-26T21:18:51.309Z,4.35
2022-10-26T21:21:18.435Z,4.00
2022-10-26T21:23:45.646Z,5.20
2022-10-26T21:26:14.777Z,4.57
2022-10-26T21:28:43.112Z,5.00
2022-10-26T21:31:11.148Z,4.95
2022-10-26T21:33:44.850Z,3.40
2022-10-26T21:36:12.586Z,4.32
2022-10-26T21:38:40.425Z,5.43
2022-10-26T21:41:26.543Z,5.57
2022-10-26T21:44:03.386Z,3.13
2022-10-26T21:46:37.808Z,4.00
2022-10-26T21:49:05.124Z,3.47
2022-10-26T21:51:32.247Z,3.90
2022-10-26T21:54:00.084Z,3.67
2022-10-26T21:56:29.464Z,3.08
2022-10-26T21:58:56.650Z,3.08
2022-10-26T22:01:23.871Z,1.98
2022-10-26T22:03:53.468Z,3.35
2022-10-26T22:08:52.744Z,2.38
2022-10-26T22:11:24.892Z,4.07
2022-10-26T22:13:52.920Z,2.92
2022-10-26T22:16:21.770Z,3.90
2022-10-26T22:18:50.393Z,5.97
2022-10-26T22:23:45.190Z,4.63
2022-10-26T22:26:16.935Z,4.85
2022-10-26T22:28:44.702Z,3.95
2022-10-26T22:31:13.121Z,3.90
2022-10-26T22:33:40.414Z,4.85
2022-10-26T22:36:11.893Z,4.63
2022-10-26T22:38:41.788Z,3.72
2022-10-26T22:41:09.375Z,3.00
2022-10-26T22:43:36.540Z,4.80
2022-10-26T22:46:05.131Z,4.13
2022-10-26T22:53:26.328Z,3.80
2022-10-26T22:55:53.609Z,3.47
2022-10-26T22:58:20.683Z,3.22
2022-10-26T23:00:47.953Z,3.90
2022-10-26T23:03:15.068Z,3.03
2022-10-26T23:05:48.983Z,2.72
2022-10-26T23:08:16.130Z,4.25
2022-10-26T23:10:43.217Z,3.28
2022-10-26T23:13:10.397Z,3.45
2022-10-26T23:15:37.548Z,3.58
2022-10-26T23:18:04.841Z,4.28
2022-10-26T23:20:33.616Z,3.05
2022-10-26T23:23:01.176Z,3.13
2022-10-26T23:25:28.742Z,3.85
2022-10-26T23:27:55.888Z,4.30
2022-10-26T23:30:23.211Z,5.00
2022-10-26T23:32:50.570Z,1.70
2022-10-26T23:35:17.879Z,4.40
2022-10-26T23:37:45.157Z,6.05
2022-10-26T23:40:12.524Z,4.90
2022-10-26T23:42:39.712Z,4.70
2022-10-26T23:45:06.958Z,4.72
2022-10-26T23:47:34.085Z,3.47
2022-10-26T23:50:01.161Z,4.30
2022-10-26T23:52:28.435Z,1.20
2022-10-26T23:54:55.793Z,4.13
2022-10-26T23:57:22.926Z,4.07
2022-10-26T23:59:50.173Z,4.10
